createdAt,value
2022-11-05T00:00:38.428Z,7.69
2022-11-05T00:03:24.562Z,7.69
2022-11-05T00:06:11.893Z,7.56
2022-11-05T00:08:59.975Z,7.51
2022-11-05T00:11:46.091Z,7.47
2022-11-05T00:14:32.539Z,7.49
2022-11-05T00:16:59.745Z,7.37
2022-11-05T00:19:27.071Z,7.33
2022-11-05T00:22:20.235Z,7.35
2022-11-05T00:25:05.787Z,7.44
2022-11-05T00:27:34.143Z,7.38
2022-11-05T00:30:05.952Z,7.57
2022-11-05T00:32:33.772Z,7.60
2022-11-05T00:35:00.963Z,7.65
2022-11-05T00:37:28.731Z,7.52
2022-11-05T00:39:55.888Z,7.43
2022-11-05T00:42:41.833Z,7.48
2022-11-05T00:45:09.732Z,7.39
2022-11-05T00:47:57.121Z,7.27
2022-11-05T00:50:24.858Z,7.18
2022-11-05T00:52:55.888Z,7.20
2022-11-05T00:55:37.299Z,7.29
2022-11-05T00:58:09.928Z,7.36
2022-11-05T01:00:41.586Z,7.38
2022-11-05T01:03:17.787Z,7.35
2022-11-05T01:05:53.296Z,7.37
2022-11-05T01:08:23.924Z,7.16
2022-11-05T01:10:56.615Z,7.08
2022-11-05T01:13:29.028Z,7.05
2022-11-05T01:15:57.776Z,7.08
2022-11-05T01:18:25.469Z,6.96
2022-11-05T01:20:53.085Z,6.82
2022-11-05T01:23:20.762Z,6.82
2022-11-05T01:25:48.455Z,6.81
2022-11-05T01:28:15.667Z,6.85
2022-11-05T01:30:42.817Z,6.95
2022-11-05T01:33:10.353Z,7.00
2022-11-05T01:35:39.774Z,6.82
2022-11-05T01:38:06.893Z,6.66
2022-11-05T01:40:34.143Z,6.57
2022-11-05T01:43:01.340Z,6.52
2022-11-05T01:45:29.200Z,6.47
2022-11-05T01:48:17.342Z,6.64
2022-11-05T01:51:05.309Z,6.66
2022-11-05T01:54:08.296Z,6.40
2022-11-05T01:56:52.388Z,6.30
2022-11-05T01:59:39.971Z,6.34
2022-11-05T02:02:08.809Z,6.33
2022-11-05T02:04:59.940Z,6.41
2022-11-05T02:07:29.466Z,6.39
2022-11-05T02:10:13.875Z,6.35
2022-11-05T02:12:47.743Z,6.38
2022-11-05T02:15:25.212Z,6.36
2022-11-05T02:18:28.147Z,6.34
2022-11-05T02:21:27.603Z,6.43
2022-11-05T02:24:52.450Z,6.47
2022-11-05T02:28:09.866Z,6.28
2022-11-05T02:31:08.395Z,6.09
2022-11-05T02:34:08.574Z,5.94
2022-11-05T02:37:33.055Z,5.83
2022-11-05T02:40:16.779Z,5.80
2022-11-05T02:43:26.536Z,6.11
2022-11-05T02:46:32.816Z,6.11
2022-11-05T02:49:39.920Z,6.02
2022-11-05T02:52:16.883Z,6.06
2022-11-05T02:55:38.287Z,6.17
2022-11-05T02:58:06.139Z,6.09
2022-11-05T03:00:49.648Z,6.01
2022-11-05T03:03:49.692Z,5.87
2022-11-05T03:07:00.775Z,5.65
2022-11-05T03:10:24.594Z,5.65
2022-11-05T03:13:31.452Z,5.74
2022-11-05T03:16:20.482Z,5.83
2022-11-05T03:19:18.152Z,5.86
2022-11-05T03:21:53.796Z,5.79
2022-11-05T03:24:34.684Z,5.74
2022-11-05T03:27:20.483Z,5.80
2022-11-05T03:29:54.907Z,5.68
2022-11-05T03:32:23.921Z,5.68
2022-11-05T03:35:02.471Z,5.60
2022-11-05T03:37:36.404Z,5.56
2022-11-05T03:40:09.487Z,5.42
2022-11-05T03:42:43.580Z,5.38
2022-11-05T03:45:20.547Z,5.46
2022-11-05T03:47:51.236Z,5.31
2022-11-05T03:50:41.502Z,5.24
2022-11-05T03:53:30.506Z,5.19
2022-11-05T03:56:45.065Z,5.30
2022-11-05T03:59:13.384Z,5.39
2022-11-05T04:01:42.749Z,5.35
2022-11-05T04:04:10.255Z,5.34
2022-11-05T04:06:56.051Z,5.42
2022-11-05T04:09:42.036Z,5.58
2022-11-05T04:12:31.135Z,5.35
2022-11-05T04:14:58.413Z,5.28
2022-11-05T04:17:25.563Z,5.36
2022-11-05T04:20:31.053Z,5.33
2022-11-05T04:23:23.497Z,5.44
2022-11-05T04:25:50.980Z,5.32
2022-11-05T04:28:18.386Z,5.28
2022-11-05T04:30:46.571Z,5.27
2022-11-05T04:33:17.543Z,5.16
2022-11-05T04:35:48.590Z,5.06
2022-11-05T04:38:19.867Z,5.15
2022-11-05T04:40:48.123Z,5.19
2022-11-05T04:43:19.545Z,5.10
2022-11-05T04:45:47.656Z,5.24
2022-11-05T04:48:14.889Z,5.07
2022-11-05T04:50:42.120Z,5.01
2022-11-05T04:53:09.496Z,5.08
2022-11-05T04:55:36.953Z,5.27
2022-11-05T04:58:04.562Z,5.28
2022-11-05T05:00:31.778Z,5.20
2022-11-05T05:02:58.932Z,5.31
2022-11-05T05:05:26.190Z,5.24
2022-11-05T05:07:53.307Z,5.07
2022-11-05T05:10:20.578Z,5.11
2022-11-05T05:12:48.424Z,4.91
2022-11-05T05:15:15.899Z,4.70
2022-11-05T05:17:43.155Z,4.60
2022-11-05T05:20:29.007Z,4.62
2022-11-05T05:22:56.361Z,4.56
2022-11-05T05:25:23.890Z,4.48
2022-11-05T05:27:51.229Z,4.41
2022-11-05T05:30:18.699Z,4.59
2022-11-05T05:32:46.416Z,4.53
2022-11-05T05:35:13.622Z,4.38
2022-11-05T05:37:40.851Z,4.30
2022-11-05T05:40:09.933Z,4.32
2022-11-05T05:42:42.709Z,4.60
2022-11-05T05:45:12.322Z,4.64
2022-11-05T05:47:39.710Z,4.52
2022-11-05T05:50:07.140Z,4.76
2022-11-05T05:52:34.382Z,4.83
2022-11-05T05:55:01.594Z,4.94
2022-11-05T05:57:28.743Z,4.96
2022-11-05T05:59:55.852Z,4.91
2022-11-05T06:02:23.288Z,4.68
2022-11-05T06:04:50.502Z,4.45
2022-11-05T06:07:17.647Z,4.44
2022-11-05T06:09:44.802Z,4.60
2022-11-05T06:12:12.460Z,4.64
2022-11-05T06:14:39.730Z,4.69
2022-11-05T06:17:09.982Z,4.51
2022-11-05T06:19:37.082Z,4.45
2022-11-05T06:22:04.274Z,4.46
2022-11-05T06:24:31.396Z,4.41
2022-11-05T06:26:58.563Z,4.54
2022-11-05T06:29:25.798Z,4.44
2022-11-05T06:31:52.949Z,4.55
2022-11-05T06:34:20.082Z,4.82
2022-11-05T06:36:47.319Z,5.03
2022-11-05T06:39:14.502Z,5.16
2022-11-05T06:42:17.225Z,5.17
2022-11-05T06:44:28.864Z,5.24
2022-11-05T06:46:56.043Z,5.31
2022-11-05T06:49:24.683Z,5.43
2022-11-05T06:51:52.792Z,5.44
2022-11-05T06:54:19.972Z,5.44
2022-11-05T06:56:47.198Z,5.49
2022-11-05T06:59:14.771Z,5.59
2022-11-05T07:01:42.206Z,5.65
2022-11-05T07:04:12.471Z,5.78
2022-11-05T07:06:39.744Z,5.99
2022-11-05T07:09:07.034Z,6.11
2022-11-05T07:11:34.254Z,6.20
2022-11-05T07:14:01.478Z,6.33
2022-11-05T07:16:28.708Z,6.46
2022-11-05T07:18:56.023Z,6.54
2022-11-05T07:21:23.206Z,6.63
2022-11-05T07:23:50.583Z,6.77
2022-11-05T07:26:17.900Z,6.93
2022-11-05T07:28:45.369Z,7.09
2022-11-05T07:31:12.541Z,7.22
2022-11-05T07:33:39.770Z,7.31
2022-11-05T07:36:07.607Z,7.41
2022-11-05T07:38:34.799Z,7.56
2022-11-05T07:41:02.061Z,7.70
2022-11-05T07:43:29.336Z,7.84
2022-11-05T07:45:56.658Z,8.04
2022-11-05T07:48:23.932Z,8.16
2022-11-05T07:50:53.122Z,8.18
2022-11-05T07:53:21.143Z,8.36
2022-11-05T07:55:48.421Z,8.49
2022-11-05T07:58:15.607Z,8.66
2022-11-05T08:00:43.030Z,8.73
2022-11-05T08:03:18.623Z,8.79
2022-11-05T08:05:48.154Z,8.87
2022-11-05T08:08:18.902Z,8.96
2022-11-05T08:10:46.788Z,9.12
2022-11-05T08:13:15.530Z,9.37
2022-11-05T08:15:43.492Z,9.43
2022-11-05T08:18:22.110Z,9.46
2022-11-05T08:20:49.405Z,9.67
2022-11-05T08:23:16.583Z,9.74
2022-11-05T08:25:43.801Z,9.78
2022-11-05T08:28:13.005Z,9.81
2022-11-05T08:30:40.756Z,9.87
2022-11-05T08:33:12.554Z,9.91
2022-11-05T08:35:41.005Z,10.03
2022-11-05T08:38:13.813Z,10.12
2022-11-05T08:40:42.957Z,10.24
2022-11-05T08:43:13.943Z,10.24
2022-11-05T08:45:42.381Z,10.33
2022-11-05T08:48:17.133Z,10.54
2022-11-05T08:50:47.631Z,10.66
2022-11-05T08:53:15.704Z,10.74
2022-11-05T08:55:44.235Z,10.90
2022-11-05T08:58:16.826Z,11.02
2022-11-05T09:00:48.244Z,10.94
2022-11-05T09:03:16.242Z,10.94
2022-11-05T09:05:43.969Z,11.05
2022-11-05T09:08:16.583Z,11.14
2022-11-05T09:10:46.154Z,11.44
2022-11-05T09:13:18.969Z,11.65
2022-11-05T09:15:50.946Z,11.80
2022-11-05T09:18:19.947Z,11.74
2022-11-05T09:20:47.674Z,11.91
2022-11-05T09:23:16.200Z,11.94
2022-11-05T09:25:44.664Z,11.89
2022-11-05T09:28:20.252Z,11.89
2022-11-05T09:30:50.952Z,12.08
2022-11-05T09:33:23.089Z,12.09
2022-11-05T09:35:51.832Z,12.14
2022-11-05T09:38:19.776Z,12.56
2022-11-05T09:41:12.644Z,12.69
2022-11-05T09:43:58.538Z,12.69
2022-11-05T09:46:39.752Z,12.73
2022-11-05T09:49:22.880Z,12.71
2022-11-05T09:51:52.018Z,12.84
2022-11-05T09:54:24.690Z,12.82
2022-11-05T09:56:54.009Z,12.82
2022-11-05T09:59:42.011Z,12.91
2022-11-05T10:02:34.762Z,13.14
2022-11-05T10:05:10.369Z,13.25
2022-11-05T10:07:50.869Z,13.16
2022-11-05T10:10:43.381Z,13.13
2022-11-05T10:13:48.033Z,13.33
2022-11-05T10:16:41.997Z,14.04
2022-11-05T10:19:31.128Z,14.41
2022-11-05T10:22:13.136Z,14.63
2022-11-05T10:24:47.116Z,15.06
2022-11-05T10:27:29.458Z,15.19
2022-11-05T10:29:57.016Z,15.02
2022-11-05T10:32:41.422Z,15.29
2022-11-05T10:35:18.535Z,15.49
2022-11-05T10:37:46.729Z,15.69
2022-11-05T10:40:36.060Z,15.66
2022-11-05T10:43:21.596Z,15.71
2022-11-05T10:46:32.457Z,16.79
2022-11-05T10:49:58.851Z,15.90
2022-11-05T10:52:42.256Z,15.78
2022-11-05T10:55:27.670Z,16.31
2022-11-05T10:57:57.138Z,16.86
2022-11-05T11:00:28.397Z,17.25
2022-11-05T11:03:04.030Z,16.94
2022-11-05T11:05:37.204Z,17.08
2022-11-05T11:08:13.294Z,17.05
2022-11-05T11:10:57.196Z,16.81
2022-11-05T11:13:59.069Z,16.88
2022-11-05T11:16:38.207Z,17.00
2022-11-05T11:19:21.397Z,15.99
2022-11-05T11:22:15.864Z,16.10
2022-11-05T11:24:48.163Z,15.83
2022-11-05T11:27:29.486Z,16.11
2022-11-05T11:30:03.717Z,16.42
2022-11-05T11:32:40.075Z,16.57
2022-11-05T11:35:23.933Z,16.38
2022-11-05T11:37:57.346Z,16.20
2022-11-05T11:40:36.129Z,15.79
2022-11-05T11:43:28.088Z,15.63
2022-11-05T11:46:03.719Z,15.97
2022-11-05T11:48:36.460Z,16.07
2022-11-05T11:51:49.455Z,16.16
2022-11-05T11:54:28.605Z,16.25
2022-11-05T11:56:56.401Z,16.14
2022-11-05T12:00:01.781Z,16.04
2022-11-05T12:02:51.835Z,16.00
2022-11-05T12:06:51.244Z,16.02
2022-11-05T12:09:58.229Z,16.07
2022-11-05T12:13:16.501Z,16.17
2022-11-05T12:16:11.502Z,16.12
2022-11-05T12:19:34.243Z,16.38
2022-11-05T12:22:38.444Z,16.07
2022-11-05T12:25:42.444Z,15.95
2022-11-05T12:29:04.506Z,16.22
2022-11-05T12:32:35.029Z,16.30
2022-11-05T12:35:44.178Z,16.14
2022-11-05T12:39:01.626Z,16.43
2022-11-05T12:42:00.352Z,16.19
2022-11-05T12:45:16.409Z,16.05
2022-11-05T12:48:23.240Z,15.96
2022-11-05T12:51:17.443Z,16.06
2022-11-05T12:54:04.075Z,16.46
2022-11-05T12:56:54.240Z,16.52
2022-11-05T13:00:20.337Z,16.59
2022-11-05T13:03:17.256Z,16.66
2022-11-05T13:06:06.728Z,16.60
2022-11-05T13:08:47.960Z,16.62
2022-11-05T13:11:37.739Z,16.66
2022-11-05T13:14:25.749Z,16.62
2022-11-05T13:17:12.664Z,16.71
2022-11-05T13:20:01.555Z,16.75
2022-11-05T13:22:50.976Z,16.88
2022-11-05T13:25:45.231Z,16.81
2022-11-05T13:28:47.735Z,16.81
2022-11-05T13:31:23.629Z,16.92
2022-11-05T13:33:52.996Z,16.93
2022-11-05T13:37:14.809Z,16.86
2022-11-05T13:39:57.254Z,16.89
2022-11-05T13:42:47.454Z,16.87
2022-11-05T13:46:02.840Z,16.83
2022-11-05T13:49:06.330Z,17.02
2022-11-05T13:51:47.706Z,16.99
2022-11-05T13:55:16.244Z,16.96
2022-11-05T13:58:14.136Z,16.97
2022-11-05T14:01:27.527Z,16.82
2022-11-05T14:03:56.610Z,16.86
2022-11-05T14:06:36.218Z,16.88
2022-11-05T14:09:11.278Z,16.89
2022-11-05T14:11:49.997Z,16.82
2022-11-05T14:14:29.667Z,17.11
2022-11-05T14:17:08.913Z,16.95
2022-11-05T14:20:04.903Z,16.95
2022-11-05T14:22:31.867Z,17.07
2022-11-05T14:25:02.063Z,17.15
2022-11-05T14:27:29.035Z,17.38
2022-11-05T14:29:57.455Z,17.89
2022-11-05T14:32:42.913Z,19.14
2022-11-05T14:35:16.049Z,18.59
2022-11-05T14:37:56.794Z,17.92
2022-11-05T14:40:43.920Z,19.88
2022-11-05T14:43:14.396Z,21.28
2022-11-05T14:46:08.463Z,19.97
2022-11-05T14:48:54.243Z,18.11
2022-11-05T14:51:35.946Z,17.37
2022-11-05T14:54:18.221Z,17.01
2022-11-05T14:56:56.470Z,16.86
2022-11-05T14:59:31.671Z,16.75
2022-11-05T15:02:05.883Z,16.75
2022-11-05T15:04:36.258Z,16.91
2022-11-05T15:07:03.286Z,17.29
2022-11-05T15:09:56.115Z,17.09
2022-11-05T15:12:38.126Z,16.70
2022-11-05T15:15:32.704Z,16.49
2022-11-05T15:18:30.526Z,16.33
2022-11-05T15:21:02.264Z,16.10
2022-11-05T15:23:42.360Z,15.91
2022-11-05T15:27:12.735Z,15.66
2022-11-05T15:29:40.778Z,15.51
2022-11-05T15:32:18.638Z,15.28
2022-11-05T15:34:56.306Z,15.16
2022-11-05T15:37:27.751Z,15.06
2022-11-05T15:39:55.794Z,14.87
2022-11-05T15:42:27.063Z,14.70
2022-11-05T15:44:57.925Z,14.58
2022-11-05T15:47:30.154Z,14.33
2022-11-05T15:50:08.647Z,14.09
2022-11-05T15:52:49.348Z,13.92
2022-11-05T15:55:25.707Z,13.72
2022-11-05T15:58:04.657Z,13.56
2022-11-05T16:00:36.401Z,13.48
2022-11-05T16:03:32.667Z,13.34
2022-11-05T16:06:01.777Z,13.17
2022-11-05T16:08:30.611Z,12.97
2022-11-05T16:11:01.747Z,12.80
2022-11-05T16:13:41.895Z,12.78
2022-11-05T16:16:15.192Z,12.67
2022-11-05T16:18:44.887Z,12.55
2022-11-05T16:21:19.099Z,12.36
2022-11-05T16:23:49.079Z,12.31
2022-11-05T16:27:01.737Z,12.23
2022-11-05T16:29:57.312Z,12.23
2022-11-05T16:32:31.322Z,12.16
2022-11-05T16:35:06.121Z,12.05
2022-11-05T16:37:40.943Z,12.03
2022-11-05T16:40:20.426Z,12.02
2022-11-05T16:42:51.136Z,12.07
2022-11-05T16:45:24.101Z,11.90
2022-11-05T16:47:51.463Z,11.68
2022-11-05T16:50:18.547Z,11.58
2022-11-05T16:52:47.127Z,11.53
2022-11-05T16:55:16.152Z,11.39
2022-11-05T16:57:49.542Z,11.38
2022-11-05T17:00:20.393Z,11.32
2022-11-05T17:02:48.299Z,11.32
2022-11-05T17:05:25.888Z,11.21
2022-11-05T17:07:54.355Z,11.11
2022-11-05T17:10:24.211Z,11.05
2022-11-05T17:12:52.697Z,11.13
2022-11-05T17:15:31.128Z,11.11
2022-11-05T17:17:59.344Z,11.05
2022-11-05T17:20:54.964Z,10.89
2022-11-05T17:23:26.691Z,10.84
2022-11-05T17:26:02.120Z,10.87
2022-11-05T17:28:30.376Z,10.84
2022-11-05T17:31:00.951Z,10.91
2022-11-05T17:33:29.027Z,10.84
2022-11-05T17:35:56.893Z,10.85
2022-11-05T17:38:26.838Z,10.93
2022-11-05T17:40:54.226Z,10.98
2022-11-05T17:43:21.614Z,10.96
2022-11-05T17:45:52.303Z,10.77
2022-11-05T17:48:21.336Z,10.54
2022-11-05T17:50:50.928Z,10.43
2022-11-05T17:53:19.841Z,10.38
2022-11-05T17:55:48.075Z,10.39
2022-11-05T17:58:15.625Z,10.44
2022-11-05T18:00:45.071Z,10.51
2022-11-05T18:03:13.457Z,10.38
2022-11-05T18:05:42.152Z,10.29
2022-11-05T18:08:10.305Z,10.31
2022-11-05T18:10:39.865Z,10.41
2022-11-05T18:13:07.119Z,10.48
2022-11-05T18:15:36.317Z,10.36
2022-11-05T18:18:03.930Z,10.30
2022-11-05T18:20:31.395Z,10.32
2022-11-05T18:22:58.643Z,10.21
2022-11-05T18:25:26.353Z,10.23
2022-11-05T18:27:53.612Z,10.22
2022-11-05T18:30:21.049Z,10.18
2022-11-05T18:32:48.329Z,10.15
2022-11-05T18:35:15.794Z,10.20
2022-11-05T18:37:43.328Z,10.22
2022-11-05T18:40:12.006Z,10.16
2022-11-05T18:42:39.885Z,10.17
2022-11-05T18:45:09.635Z,10.13
2022-11-05T18:47:37.047Z,10.13
2022-11-05T18:50:06.404Z,10.19
2022-11-05T18:52:33.752Z,10.13
2022-11-05T18:55:01.081Z,10.13
2022-11-05T18:57:28.467Z,10.20
2022-11-05T18:59:55.692Z,10.16
2022-11-05T19:02:23.143Z,10.21
2022-11-05T19:05:22.054Z,10.11
2022-11-05T19:07:39.287Z,10.03
2022-11-05T19:10:07.855Z,9.98
2022-11-05T19:12:35.140Z,9.93
2022-11-05T19:15:03.208Z,9.84
2022-11-05T19:17:33.797Z,9.68
2022-11-05T19:20:01.670Z,9.82
2022-11-05T19:22:29.471Z,9.92
2022-11-05T19:24:56.705Z,9.86
2022-11-05T19:27:23.903Z,9.88
2022-11-05T19:29:51.707Z,9.78
2022-11-05T19:32:19.177Z,9.64
2022-11-05T19:34:46.948Z,9.51
2022-11-05T19:37:14.266Z,9.34
2022-11-05T19:39:41.783Z,9.18
2022-11-05T19:42:08.943Z,9.10
2022-11-05T19:44:36.151Z,9.07
2022-11-05T19:47:03.406Z,9.04
2022-11-05T19:49:30.661Z,8.93
2022-11-05T19:51:57.903Z,8.93
2022-11-05T19:54:25.086Z,8.85
2022-11-05T19:56:52.779Z,8.80
2022-11-05T19:59:20.056Z,8.77
2022-11-05T20:01:47.427Z,8.70
2022-11-05T20:04:14.835Z,8.64
2022-11-05T20:06:42.110Z,8.61
2022-11-05T20:09:22.716Z,8.51
2022-11-05T20:11:54.087Z,8.36
2022-11-05T20:14:21.590Z,8.32
2022-11-05T20:16:49.683Z,8.30
2022-11-05T20:19:20.317Z,8.33
2022-11-05T20:21:49.904Z,8.30
2022-11-05T20:24:24.701Z,8.28
2022-11-05T20:26:55.018Z,8.28
2022-11-05T20:29:27.877Z,8.28
2022-11-05T20:31:57.917Z,8.21
2022-11-05T20:34:26.089Z,8.18
2022-11-05T20:36:53.437Z,8.18
2022-11-05T20:39:21.232Z,8.21
2022-11-05T20:41:48.364Z,8.20
2022-11-05T20:44:15.852Z,8.16
2022-11-05T20:46:43.061Z,8.10
2022-11-05T20:49:10.275Z,8.05
2022-11-05T20:51:37.749Z,8.15
2022-11-05T20:54:05.325Z,8.10
2022-11-05T20:56:35.303Z,8.13
2022-11-05T20:59:04.519Z,7.98
2022-11-05T21:01:34.183Z,7.93
2022-11-05T21:04:03.048Z,7.82
2022-11-05T21:06:32.081Z,7.81
2022-11-05T21:08:59.638Z,7.71
2022-11-05T21:11:26.970Z,7.65
2022-11-05T21:13:54.870Z,7.61
2022-11-05T21:16:22.661Z,7.54
2022-11-05T21:18:50.041Z,7.46
2022-11-05T21:21:20.543Z,7.43
2022-11-05T21:23:48.574Z,7.31
2022-11-05T21:26:17.800Z,7.25
2022-11-05T21:28:45.380Z,7.19
2022-11-05T21:31:12.698Z,7.13
2022-11-05T21:33:39.998Z,7.23
2022-11-05T21:36:11.929Z,7.27
2022-11-05T21:38:40.911Z,7.29
2022-11-05T21:41:11.697Z,7.30
2022-11-05T21:43:41.663Z,7.36
2022-11-05T21:46:12.475Z,7.58
2022-11-05T21:48:39.962Z,7.67
2022-11-05T21:51:26.061Z,7.48
2022-11-05T21:54:11.842Z,7.35
2022-11-05T21:56:57.769Z,7.37
2022-11-05T21:59:44.476Z,7.33
2022-11-05T22:02:23.998Z,7.33
2022-11-05T22:04:56.341Z,7.36
2022-11-05T22:07:31.380Z,7.35
2022-11-05T22:09:59.105Z,7.35
2022-11-05T22:12:27.000Z,7.40
2022-11-05T22:14:54.960Z,7.42
2022-11-05T22:17:22.181Z,7.44
2022-11-05T22:19:50.103Z,7.36
2022-11-05T22:22:17.627Z,7.30
2022-11-05T22:24:46.195Z,7.32
2022-11-05T22:27:19.015Z,7.24
2022-11-05T22:29:46.378Z,7.04
2022-11-05T22:32:14.090Z,6.91
2022-11-05T22:34:41.795Z,6.86
2022-11-05T22:37:12.411Z,6.85
2022-11-05T22:39:39.651Z,6.90
2022-11-05T22:42:08.786Z,6.90
2022-11-05T22:44:36.835Z,6.78
2022-11-05T22:47:05.461Z,6.72
2022-11-05T22:49:33.620Z,6.73
2022-11-05T22:52:00.937Z,6.79
2022-11-05T22:54:28.255Z,6.77
2022-11-05T22:56:55.468Z,6.70
2022-11-05T22:59:23.047Z,6.72
2022-11-05T23:01:50.342Z,6.71
2022-11-05T23:04:17.791Z,6.76
2022-11-05T23:07:03.780Z,6.62
2022-11-05T23:09:53.268Z,6.56
2022-11-05T23:12:35.377Z,6.60
2022-11-05T23:15:06.651Z,6.49
2022-11-05T23:17:52.607Z,6.38
2022-11-05T23:20:42.356Z,6.37
2022-11-05T23:23:32.245Z,6.33
2022-11-05T23:26:20.724Z,6.22
2022-11-05T23:28:47.978Z,6.19
2022-11-05T23:31:33.643Z,6.14
2022-11-05T23:34:00.820Z,6.06
2022-11-05T23:36:46.989Z,6.07
2022-11-05T23:39:14.251Z,6.13
2022-11-05T23:42:00.400Z,6.16
2022-11-05T23:44:45.912Z,6.17
2022-11-05T23:47:32.112Z,6.22
2022-11-05T23:49:59.199Z,6.07
2022-11-05T23:52:26.423Z,5.98
2022-11-05T23:54:53.580Z,6.08
2022-11-05T23:57:20.722Z,6.06
2022-11-05T23:59:47.947Z,6.05
